sensor_id;sensor_type;location;lat;lon;timestamp;pressure;altitude;pressure_sealevel;temperature
18704;BMP180;9481;48.796;9.210;2023-02-11T00:00:25;98474.00;;;9.90
18704;BMP180;9481;48.796;9.210;2023-02-11T00:02:50;98477.00;;;9.90
18704;BMP180;9481;48.796;9.210;2023-02-11T00:05:16;98461.00;;;9.90
18704;BMP180;9481;48.796;9.210;2023-02-11T00:07:41;98471.00;;;9.90
18704;BMP180;9481;48.796;9.210;2023-02-11T00:10:08;98479.00;;;9.90
18704;BMP180;9481;48.796;9.210;2023-02-11T00:12:35;98468.00;;;9.90
18704;BMP180;9481;48.796;9.210;2023-02-11T00:15:01;98475.00;;;9.90
18704;BMP180;9481;48.796;9.210;2023-02-11T00:17:27;98466.00;;;9.90
18704;BMP180;9481;48.796;9.210;2023-02-11T00:19:53;98471.00;;;9.90
18704;BMP180;9481;48.796;9.210;2023-02-11T00:22:19;98468.00;;;9.90
18704;BMP180;9481;48.796;9.210;2023-02-11T00:24:44;98469.00;;;9.90
18704;BMP180;9481;48.796;9.210;2023-02-11T00:27:10;98475.00;;;9.80
18704;BMP180;9481;48.796;9.210;2023-02-11T00:29:37;98472.00;;;9.80
18704;BMP180;9481;48.796;9.210;2023-02-11T00:32:04;98476.00;;;9.80
18704;BMP180;9481;48.796;9.210;2023-02-11T00:34:31;98472.00;;;9.80
18704;BMP180;9481;48.796;9.210;2023-02-11T00:36:57;98475.00;;;9.80
18704;BMP180;9481;48.796;9.210;2023-02-11T00:39:23;98460.00;;;9.80
18704;BMP180;9481;48.796;9.210;2023-02-11T00:41:49;98464.00;;;9.80
18704;BMP180;9481;48.796;9.210;2023-02-11T00:44:15;98461.00;;;9.80
18704;BMP180;9481;48.796;9.210;2023-02-11T00:46:41;98454.00;;;9.70
18704;BMP180;9481;48.796;9.210;2023-02-11T00:49:06;98447.00;;;9.70
18704;BMP180;9481;48.796;9.210;2023-02-11T00:51:32;98454.00;;;9.70
18704;BMP180;9481;48.796;9.210;2023-02-11T00:53:58;98446.00;;;9.70
18704;BMP180;9481;48.796;9.210;2023-02-11T00:56:24;98457.00;;;9.70
18704;BMP180;9481;48.796;9.210;2023-02-11T00:58:49;98457.00;;;9.70
18704;BMP180;9481;48.796;9.210;2023-02-11T01:01:15;98460.00;;;9.70
18704;BMP180;9481;48.796;9.210;2023-02-11T01:03:41;98447.00;;;9.70
18704;BMP180;9481;48.796;9.210;2023-02-11T01:06:08;98459.00;;;9.70
18704;BMP180;9481;48.796;9.210;2023-02-11T01:08:34;98456.00;;;9.70
18704;BMP180;9481;48.796;9.210;2023-02-11T01:11:04;98447.00;;;9.70
18704;BMP180;9481;48.796;9.210;2023-02-11T01:13:32;98441.00;;;9.70
18704;BMP180;9481;48.796;9.210;2023-02-11T01:15:59;98438.00;;;9.70
18704;BMP180;9481;48.796;9.210;2023-02-11T01:18:26;98443.00;;;9.70
18704;BMP180;9481;48.796;9.210;2023-02-11T01:20:53;98438.00;;;9.70
18704;BMP180;9481;48.796;9.210;2023-02-11T01:23:19;98423.00;;;9.70
18704;BMP180;9481;48.796;9.210;2023-02-11T01:25:46;98416.00;;;9.70
18704;BMP180;9481;48.796;9.210;2023-02-11T01:28:20;98416.00;;;9.60
18704;BMP180;9481;48.796;9.210;2023-02-11T01:30:45;98418.00;;;9.60
18704;BMP180;9481;48.796;9.210;2023-02-11T01:33:12;98409.00;;;9.60
18704;BMP180;9481;48.796;9.210;2023-02-11T01:35:38;98411.00;;;9.50
18704;BMP180;9481;48.796;9.210;2023-02-11T01:38:07;98417.00;;;9.50
18704;BMP180;9481;48.796;9.210;2023-02-11T01:40:33;98401.00;;;9.50
18704;BMP180;9481;48.796;9.210;2023-02-11T01:42:59;98410.00;;;9.50
18704;BMP180;9481;48.796;9.210;2023-02-11T01:48:21;98410.00;;;9.40
18704;BMP180;9481;48.796;9.210;2023-02-11T01:50:52;98415.00;;;9.40
18704;BMP180;9481;48.796;9.210;2023-02-11T01:53:19;98408.00;;;9.40
18704;BMP180;9481;48.796;9.210;2023-02-11T01:56:06;98416.00;;;9.40
18704;BMP180;9481;48.796;9.210;2023-02-11T01:58:58;98397.00;;;9.40
18704;BMP180;9481;48.796;9.210;2023-02-11T02:01:28;98404.00;;;9.30
18704;BMP180;9481;48.796;9.210;2023-02-11T02:04:00;98404.00;;;9.30
18704;BMP180;9481;48.796;9.210;2023-02-11T02:06:38;98397.00;;;9.30
18704;BMP180;9481;48.796;9.210;2023-02-11T02:09:19;98402.00;;;9.30
18704;BMP180;9481;48.796;9.210;2023-02-11T02:11:46;98399.00;;;9.30
18704;BMP180;9481;48.796;9.210;2023-02-11T02:14:12;98400.00;;;9.30
18704;BMP180;9481;48.796;9.210;2023-02-11T02:16:38;98393.00;;;9.30
18704;BMP180;9481;48.796;9.210;2023-02-11T02:28:35;98393.00;;;9.20
18704;BMP180;9481;48.796;9.210;2023-02-11T02:31:52;98382.00;;;9.10
18704;BMP180;9481;48.796;9.210;2023-02-11T02:34:43;98380.00;;;9.10
18704;BMP180;9481;48.796;9.210;2023-02-11T02:39:51;98368.00;;;9.10
18704;BMP180;9481;48.796;9.210;2023-02-11T02:42:18;98364.00;;;9.10
18704;BMP180;9481;48.796;9.210;2023-02-11T02:44:52;98367.00;;;9.10
18704;BMP180;9481;48.796;9.210;2023-02-11T02:47:19;98363.00;;;9.20
18704;BMP180;9481;48.796;9.210;2023-02-11T02:49:45;98365.00;;;9.20
18704;BMP180;9481;48.796;9.210;2023-02-11T02:54:54;98363.00;;;9.20
18704;BMP180;9481;48.796;9.210;2023-02-11T02:58:07;98352.00;;;9.10
18704;BMP180;9481;48.796;9.210;2023-02-11T03:00:53;98362.00;;;9.20
18704;BMP180;9481;48.796;9.210;2023-02-11T03:03:53;98342.00;;;9.20
18704;BMP180;9481;48.796;9.210;2023-02-11T03:06:54;98343.00;;;9.20
18704;BMP180;9481;48.796;9.210;2023-02-11T03:09:47;98348.00;;;9.20
18704;BMP180;9481;48.796;9.210;2023-02-11T03:12:16;98354.00;;;9.20
18704;BMP180;9481;48.796;9.210;2023-02-11T03:14:43;98333.00;;;9.20
18704;BMP180;9481;48.796;9.210;2023-02-11T03:17:09;98337.00;;;9.20
18704;BMP180;9481;48.796;9.210;2023-02-11T03:19:45;98341.00;;;9.20
18704;BMP180;9481;48.796;9.210;2023-02-11T03:22:26;98348.00;;;9.20
18704;BMP180;9481;48.796;9.210;2023-02-11T03:24:55;98344.00;;;9.20
18704;BMP180;9481;48.796;9.210;2023-02-11T03:27:32;98337.00;;;9.20
18704;BMP180;9481;48.796;9.210;2023-02-11T03:30:15;98335.00;;;9.20
18704;BMP180;9481;48.796;9.210;2023-02-11T03:32:52;98339.00;;;9.20
18704;BMP180;9481;48.796;9.210;2023-02-11T03:35:36;98335.00;;;9.20
18704;BMP180;9481;48.796;9.210;2023-02-11T03:38:12;98342.00;;;9.20
18704;BMP180;9481;48.796;9.210;2023-02-11T03:40:41;98323.00;;;9.20
18704;BMP180;9481;48.796;9.210;2023-02-11T03:43:29;98340.00;;;9.10
18704;BMP180;9481;48.796;9.210;2023-02-11T03:45:57;98333.00;;;9.20
18704;BMP180;9481;48.796;9.210;2023-02-11T03:48:35;98342.00;;;9.20
18704;BMP180;9481;48.796;9.210;2023-02-11T03:51:07;98339.00;;;9.20
18704;BMP180;9481;48.796;9.210;2023-02-11T03:53:34;98337.00;;;9.10
18704;BMP180;9481;48.796;9.210;2023-02-11T03:56:06;98328.00;;;9.10
18704;BMP180;9481;48.796;9.210;2023-02-11T03:58:33;98342.00;;;9.10
18704;BMP180;9481;48.796;9.210;2023-02-11T04:00:59;98343.00;;;9.10
18704;BMP180;9481;48.796;9.210;2023-02-11T04:03:27;98332.00;;;9.10
18704;BMP180;9481;48.796;9.210;2023-02-11T04:05:52;98330.00;;;9.10
18704;BMP180;9481;48.796;9.210;2023-02-11T04:08:19;98327.00;;;9.10
18704;BMP180;9481;48.796;9.210;2023-02-11T04:10:45;98327.00;;;9.10
18704;BMP180;9481;48.796;9.210;2023-02-11T04:13:10;98341.00;;;9.10
18704;BMP180;9481;48.796;9.210;2023-02-11T04:15:36;98343.00;;;9.20
18704;BMP180;9481;48.796;9.210;2023-02-11T04:18:02;98348.00;;;9.20
18704;BMP180;9481;48.796;9.210;2023-02-11T04:20:29;98350.00;;;9.20
18704;BMP180;9481;48.796;9.210;2023-02-11T04:22:54;98365.00;;;9.20
18704;BMP180;9481;48.796;9.210;2023-02-11T04:25:20;98366.00;;;9.20
18704;BMP180;9481;48.796;9.210;2023-02-11T04:27:46;98369.00;;;9.20
18704;BMP180;9481;48.796;9.210;2023-02-11T04:30:12;98377.00;;;9.20
18704;BMP180;9481;48.796;9.210;2023-02-11T04:32:38;98378.00;;;9.20
18704;BMP180;9481;48.796;9.210;2023-02-11T04:35:05;98362.00;;;9.20
18704;BMP180;9481;48.796;9.210;2023-02-11T04:37:30;98362.00;;;9.20
18704;BMP180;9481;48.796;9.210;2023-02-11T04:39:56;98365.00;;;9.20
18704;BMP180;9481;48.796;9.210;2023-02-11T04:42:22;98365.00;;;9.20
18704;BMP180;9481;48.796;9.210;2023-02-11T04:44:47;98355.00;;;9.20
18704;BMP180;9481;48.796;9.210;2023-02-11T04:47:13;98357.00;;;9.20
18704;BMP180;9481;48.796;9.210;2023-02-11T04:49:40;98358.00;;;9.20
18704;BMP180;9481;48.796;9.210;2023-02-11T04:52:06;98359.00;;;9.20
18704;BMP180;9481;48.796;9.210;2023-02-11T04:54:32;98355.00;;;9.30
18704;BMP180;9481;48.796;9.210;2023-02-11T04:56:58;98356.00;;;9.30
18704;BMP180;9481;48.796;9.210;2023-02-11T04:59:24;98361.00;;;9.30
18704;BMP180;9481;48.796;9.210;2023-02-11T05:01:49;98364.00;;;9.30
18704;BMP180;9481;48.796;9.210;2023-02-11T05:04:16;98357.00;;;9.30
18704;BMP180;9481;48.796;9.210;2023-02-11T05:06:41;98338.00;;;9.30
18704;BMP180;9481;48.796;9.210;2023-02-11T05:09:09;98347.00;;;9.30
18704;BMP180;9481;48.796;9.210;2023-02-11T05:11:35;98346.00;;;9.30
18704;BMP180;9481;48.796;9.210;2023-02-11T05:14:01;98348.00;;;9.30
18704;BMP180;9481;48.796;9.210;2023-02-11T05:16:27;98346.00;;;9.20
18704;BMP180;9481;48.796;9.210;2023-02-11T05:18:52;98341.00;;;9.20
18704;BMP180;9481;48.796;9.210;2023-02-11T05:21:20;98316.00;;;9.20
18704;BMP180;9481;48.796;9.210;2023-02-11T05:23:46;98324.00;;;9.20
18704;BMP180;9481;48.796;9.210;2023-02-11T05:26:12;98310.00;;;9.10
18704;BMP180;9481;48.796;9.210;2023-02-11T05:28:39;98303.00;;;9.10
18704;BMP180;9481;48.796;9.210;2023-02-11T05:31:06;98292.00;;;9.10
18704;BMP180;9481;48.796;9.210;2023-02-11T05:33:32;98285.00;;;9.00
18704;BMP180;9481;48.796;9.210;2023-02-11T05:36:01;98295.00;;;9.00
18704;BMP180;9481;48.796;9.210;2023-02-11T05:38:27;98289.00;;;9.00
18704;BMP180;9481;48.796;9.210;2023-02-11T05:40:53;98306.00;;;8.90
18704;BMP180;9481;48.796;9.210;2023-02-11T05:43:19;98306.00;;;8.90
18704;BMP180;9481;48.796;9.210;2023-02-11T05:45:45;98290.00;;;8.90
18704;BMP180;9481;48.796;9.210;2023-02-11T05:48:10;98281.00;;;9.00
18704;BMP180;9481;48.796;9.210;2023-02-11T05:50:36;98293.00;;;9.20
18704;BMP180;9481;48.796;9.210;2023-02-11T05:53:01;98294.00;;;9.50
18704;BMP180;9481;48.796;9.210;2023-02-11T05:55:27;98304.00;;;9.80
18704;BMP180;9481;48.796;9.210;2023-02-11T05:57:53;98295.00;;;10.00
18704;BMP180;9481;48.796;9.210;2023-02-11T06:00:19;98286.00;;;10.00
18704;BMP180;9481;48.796;9.210;2023-02-11T06:02:44;98291.00;;;10.00
18704;BMP180;9481;48.796;9.210;2023-02-11T06:05:10;98290.00;;;9.90
18704;BMP180;9481;48.796;9.210;2023-02-11T06:07:36;98292.00;;;9.90
18704;BMP180;9481;48.796;9.210;2023-02-11T06:10:01;98297.00;;;9.80
18704;BMP180;9481;48.796;9.210;2023-02-11T06:12:27;98293.00;;;9.70
18704;BMP180;9481;48.796;9.210;2023-02-11T06:14:52;98301.00;;;9.70
18704;BMP180;9481;48.796;9.210;2023-02-11T06:17:18;98309.00;;;9.60
18704;BMP180;9481;48.796;9.210;2023-02-11T06:19:44;98319.00;;;9.60
18704;BMP180;9481;48.796;9.210;2023-02-11T06:22:09;98317.00;;;9.60
18704;BMP180;9481;48.796;9.210;2023-02-11T06:24:35;98309.00;;;9.60
18704;BMP180;9481;48.796;9.210;2023-02-11T06:27:03;98319.00;;;9.60
18704;BMP180;9481;48.796;9.210;2023-02-11T06:29:29;98309.00;;;9.50
18704;BMP180;9481;48.796;9.210;2023-02-11T06:31:55;98314.00;;;9.60
18704;BMP180;9481;48.796;9.210;2023-02-11T06:34:21;98317.00;;;9.50
18704;BMP180;9481;48.796;9.210;2023-02-11T06:36:46;98325.00;;;9.50
18704;BMP180;9481;48.796;9.210;2023-02-11T06:39:13;98312.00;;;9.50
18704;BMP180;9481;48.796;9.210;2023-02-11T06:41:38;98309.00;;;9.50
18704;BMP180;9481;48.796;9.210;2023-02-11T06:44:05;98311.00;;;9.50
18704;BMP180;9481;48.796;9.210;2023-02-11T06:46:31;98317.00;;;9.50
18704;BMP180;9481;48.796;9.210;2023-02-11T06:48:56;98313.00;;;9.50
18704;BMP180;9481;48.796;9.210;2023-02-11T06:51:22;98315.00;;;9.50
18704;BMP180;9481;48.796;9.210;2023-02-11T06:53:48;98332.00;;;9.50
18704;BMP180;9481;48.796;9.210;2023-02-11T06:56:20;98320.00;;;9.50
18704;BMP180;9481;48.796;9.210;2023-02-11T06:58:46;98330.00;;;9.50
18704;BMP180;9481;48.796;9.210;2023-02-11T07:01:15;98325.00;;;9.50
18704;BMP180;9481;48.796;9.210;2023-02-11T07:03:43;98335.00;;;9.50
18704;BMP180;9481;48.796;9.210;2023-02-11T07:06:17;98338.00;;;9.50
18704;BMP180;9481;48.796;9.210;2023-02-11T07:08:44;98339.00;;;9.50
18704;BMP180;9481;48.796;9.210;2023-02-11T07:11:15;98334.00;;;9.50
18704;BMP180;9481;48.796;9.210;2023-02-11T07:13:41;98332.00;;;9.50
18704;BMP180;9481;48.796;9.210;2023-02-11T07:16:14;98335.00;;;9.50
18704;BMP180;9481;48.796;9.210;2023-02-11T07:18:41;98327.00;;;9.50
18704;BMP180;9481;48.796;9.210;2023-02-11T07:21:10;98335.00;;;9.50
18704;BMP180;9481;48.796;9.210;2023-02-11T07:23:37;98331.00;;;9.50
18704;BMP180;9481;48.796;9.210;2023-02-11T07:26:06;98328.00;;;9.50
18704;BMP180;9481;48.796;9.210;2023-02-11T07:28:35;98331.00;;;9.50
18704;BMP180;9481;48.796;9.210;2023-02-11T07:31:15;98325.00;;;9.50
18704;BMP180;9481;48.796;9.210;2023-02-11T07:33:42;98318.00;;;9.50
18704;BMP180;9481;48.796;9.210;2023-02-11T07:36:11;98319.00;;;9.50
18704;BMP180;9481;48.796;9.210;2023-02-11T07:38:37;98330.00;;;9.50
18704;BMP180;9481;48.796;9.210;2023-02-11T07:41:07;98330.00;;;9.50
18704;BMP180;9481;48.796;9.210;2023-02-11T07:43:35;98340.00;;;9.60
18704;BMP180;9481;48.796;9.210;2023-02-11T07:46:11;98343.00;;;9.60
18704;BMP180;9481;48.796;9.210;2023-02-11T07:48:37;98346.00;;;9.70
18704;BMP180;9481;48.796;9.210;2023-02-11T07:51:22;98338.00;;;9.70
18704;BMP180;9481;48.796;9.210;2023-02-11T07:53:48;98335.00;;;9.80
18704;BMP180;9481;48.796;9.210;2023-02-11T07:56:16;98328.00;;;9.80
18704;BMP180;9481;48.796;9.210;2023-02-11T07:58:42;98319.00;;;9.90
18704;BMP180;9481;48.796;9.210;2023-02-11T08:01:18;98319.00;;;9.90
18704;BMP180;9481;48.796;9.210;2023-02-11T08:03:44;98302.00;;;10.00
18704;BMP180;9481;48.796;9.210;2023-02-11T08:06:16;98320.00;;;10.00
18704;BMP180;9481;48.796;9.210;2023-02-11T08:08:43;98311.00;;;10.00
18704;BMP180;9481;48.796;9.210;2023-02-11T08:11:12;98318.00;;;10.00
18704;BMP180;9481;48.796;9.210;2023-02-11T08:13:39;98317.00;;;10.10
18704;BMP180;9481;48.796;9.210;2023-02-11T08:16:06;98315.00;;;10.10
18704;BMP180;9481;48.796;9.210;2023-02-11T08:18:34;98317.00;;;10.10
18704;BMP180;9481;48.796;9.210;2023-02-11T08:21:08;98307.00;;;10.10
18704;BMP180;9481;48.796;9.210;2023-02-11T08:23:39;98317.00;;;10.10
18704;BMP180;9481;48.796;9.210;2023-02-11T08:26:12;98312.00;;;10.20
18704;BMP180;9481;48.796;9.210;2023-02-11T08:28:40;98326.00;;;10.20
18704;BMP180;9481;48.796;9.210;2023-02-11T08:31:15;98316.00;;;10.20
18704;BMP180;9481;48.796;9.210;2023-02-11T08:33:42;98328.00;;;10.30
18704;BMP180;9481;48.796;9.210;2023-02-11T08:36:12;98336.00;;;10.30
18704;BMP180;9481;48.796;9.210;2023-02-11T08:38:38;98335.00;;;10.30
18704;BMP180;9481;48.796;9.210;2023-02-11T08:41:05;98337.00;;;10.40
18704;BMP180;9481;48.796;9.210;2023-02-11T08:43:31;98336.00;;;10.50
18704;BMP180;9481;48.796;9.210;2023-02-11T08:45:58;98332.00;;;10.60
18704;BMP180;9481;48.796;9.210;2023-02-11T08:48:25;98339.00;;;10.70
18704;BMP180;9481;48.796;9.210;2023-02-11T08:50:50;98324.00;;;10.70
18704;BMP180;9481;48.796;9.210;2023-02-11T08:53:16;98328.00;;;10.90
18704;BMP180;9481;48.796;9.210;2023-02-11T08:55:53;98338.00;;;10.90
18704;BMP180;9481;48.796;9.210;2023-02-11T08:58:20;98328.00;;;11.00
18704;BMP180;9481;48.796;9.210;2023-02-11T09:00:48;98327.00;;;11.10
18704;BMP180;9481;48.796;9.210;2023-02-11T09:03:15;98322.00;;;11.20
18704;BMP180;9481;48.796;9.210;2023-02-11T09:05:46;98326.00;;;11.30
18704;BMP180;9481;48.796;9.210;2023-02-11T09:08:13;98327.00;;;11.40
18704;BMP180;9481;48.796;9.210;2023-02-11T09:10:39;98326.00;;;11.60
18704;BMP180;9481;48.796;9.210;2023-02-11T09:13:06;98322.00;;;11.70
18704;BMP180;9481;48.796;9.210;2023-02-11T09:15:32;98331.00;;;11.90
18704;BMP180;9481;48.796;9.210;2023-02-11T09:17:58;98331.00;;;12.10
18704;BMP180;9481;48.796;9.210;2023-02-11T09:20:25;98325.00;;;12.20
18704;BMP180;9481;48.796;9.210;2023-02-11T09:22:53;98335.00;;;12.30
18704;BMP180;9481;48.796;9.210;2023-02-11T09:25:19;98330.00;;;12.40
18704;BMP180;9481;48.796;9.210;2023-02-11T09:27:45;98311.00;;;12.50
18704;BMP180;9481;48.796;9.210;2023-02-11T09:30:11;98321.00;;;12.60
18704;BMP180;9481;48.796;9.210;2023-02-11T09:32:37;98309.00;;;12.70
18704;BMP180;9481;48.796;9.210;2023-02-11T09:35:03;98306.00;;;12.80
18704;BMP180;9481;48.796;9.210;2023-02-11T09:37:29;98313.00;;;12.90
18704;BMP180;9481;48.796;9.210;2023-02-11T09:39:54;98318.00;;;12.90
18704;BMP180;9481;48.796;9.210;2023-02-11T09:45:16;98308.00;;;13.10
18704;BMP180;9481;48.796;9.210;2023-02-11T09:48:19;98313.00;;;13.10
18704;BMP180;9481;48.796;9.210;2023-02-11T09:50:52;98317.00;;;13.20
18704;BMP180;9481;48.796;9.210;2023-02-11T09:53:23;98316.00;;;13.20
18704;BMP180;9481;48.796;9.210;2023-02-11T09:55:57;98327.00;;;13.20
18704;BMP180;9481;48.796;9.210;2023-02-11T09:58:29;98326.00;;;13.30
18704;BMP180;9481;48.796;9.210;2023-02-11T10:04:46;98325.00;;;13.40
18704;BMP180;9481;48.796;9.210;2023-02-11T10:10:53;98333.00;;;13.60
18704;BMP180;9481;48.796;9.210;2023-02-11T10:13:57;98338.00;;;13.70
18704;BMP180;9481;48.796;9.210;2023-02-11T10:19:36;98336.00;;;14.00
18704;BMP180;9481;48.796;9.210;2023-02-11T10:22:21;98331.00;;;14.20
18704;BMP180;9481;48.796;9.210;2023-02-11T10:24:55;98333.00;;;14.30
18704;BMP180;9481;48.796;9.210;2023-02-11T10:27:32;98333.00;;;14.50
18704;BMP180;9481;48.796;9.210;2023-02-11T10:33:03;98331.00;;;14.70
18704;BMP180;9481;48.796;9.210;2023-02-11T10:35:31;98343.00;;;14.90
18704;BMP180;9481;48.796;9.210;2023-02-11T10:37:58;98343.00;;;15.00
18704;BMP180;9481;48.796;9.210;2023-02-11T10:40:28;98344.00;;;15.20
18704;BMP180;9481;48.796;9.210;2023-02-11T10:43:02;98339.00;;;15.30
18704;BMP180;9481;48.796;9.210;2023-02-11T10:45:35;98329.00;;;15.40
18704;BMP180;9481;48.796;9.210;2023-02-11T10:48:04;98323.00;;;15.60
18704;BMP180;9481;48.796;9.210;2023-02-11T10:50:34;98314.00;;;15.70
18704;BMP180;9481;48.796;9.210;2023-02-11T10:53:16;98319.00;;;15.80
18704;BMP180;9481;48.796;9.210;2023-02-11T10:55:54;98316.00;;;16.00
18704;BMP180;9481;48.796;9.210;2023-02-11T10:58:45;98313.00;;;16.10
18704;BMP180;9481;48.796;9.210;2023-02-11T11:01:12;98300.00;;;16.30
18704;BMP180;9481;48.796;9.210;2023-02-11T11:03:46;98306.00;;;16.50
18704;BMP180;9481;48.796;9.210;2023-02-11T11:06:13;98297.00;;;16.70
18704;BMP180;9481;48.796;9.210;2023-02-11T11:08:46;98289.00;;;16.90
18704;BMP180;9481;48.796;9.210;2023-02-11T11:11:16;98283.00;;;17.10
18704;BMP180;9481;48.796;9.210;2023-02-11T11:13:59;98286.00;;;17.20
18704;BMP180;9481;48.796;9.210;2023-02-11T11:16:35;98285.00;;;17.40
18704;BMP180;9481;48.796;9.210;2023-02-11T11:21:43;98289.00;;;17.70
18704;BMP180;9481;48.796;9.210;2023-02-11T11:24:21;98299.00;;;17.80
18704;BMP180;9481;48.796;9.210;2023-02-11T11:26:56;98293.00;;;18.00
18704;BMP180;9481;48.796;9.210;2023-02-11T11:31:56;98287.00;;;18.40
18704;BMP180;9481;48.796;9.210;2023-02-11T11:34:43;98282.00;;;18.80
18704;BMP180;9481;48.796;9.210;2023-02-11T11:37:36;98285.00;;;19.50
18704;BMP180;9481;48.796;9.210;2023-02-11T11:40:32;98283.00;;;20.50
18704;BMP180;9481;48.796;9.210;2023-02-11T11:43:18;98291.00;;;21.60
18704;BMP180;9481;48.796;9.210;2023-02-11T11:45:57;98290.00;;;22.50
18704;BMP180;9481;48.796;9.210;2023-02-11T11:48:41;98288.00;;;23.30
18704;BMP180;9481;48.796;9.210;2023-02-11T11:51:11;98283.00;;;24.10
18704;BMP180;9481;48.796;9.210;2023-02-11T11:54:03;98281.00;;;24.80
18704;BMP180;9481;48.796;9.210;2023-02-11T11:56:43;98287.00;;;25.50
18704;BMP180;9481;48.796;9.210;2023-02-11T11:59:12;98285.00;;;26.00
18704;BMP180;9481;48.796;9.210;2023-02-11T12:02:16;98289.00;;;26.60
18704;BMP180;9481;48.796;9.210;2023-02-11T12:10:50;98292.00;;;28.10
18704;BMP180;9481;48.796;9.210;2023-02-11T12:17:13;98290.00;;;26.90
18704;BMP180;9481;48.796;9.210;2023-02-11T12:22:37;98287.00;;;25.60
18704;BMP180;9481;48.796;9.210;2023-02-11T12:25:34;98288.00;;;25.10
18704;BMP180;9481;48.796;9.210;2023-02-11T12:31:26;98287.00;;;25.50
18704;BMP180;9481;48.796;9.210;2023-02-11T12:43:19;98300.00;;;26.80
18704;BMP180;9481;48.796;9.210;2023-02-11T12:46:09;98300.00;;;26.80
18704;BMP180;9481;48.796;9.210;2023-02-11T12:49:05;98297.00;;;26.30
18704;BMP180;9481;48.796;9.210;2023-02-11T12:54:54;98295.00;;;25.70
18704;BMP180;9481;48.796;9.210;2023-02-11T12:57:28;98301.00;;;25.20
18704;BMP180;9481;48.796;9.210;2023-02-11T13:00:21;98302.00;;;24.60
18704;BMP180;9481;48.796;9.210;2023-02-11T13:03:21;98289.00;;;24.00
18704;BMP180;9481;48.796;9.210;2023-02-11T13:05:53;98285.00;;;23.50
18704;BMP180;9481;48.796;9.210;2023-02-11T13:08:28;98274.00;;;23.00
18704;BMP180;9481;48.796;9.210;2023-02-11T13:11:00;98266.00;;;22.60
18704;BMP180;9481;48.796;9.210;2023-02-11T13:17:00;98264.00;;;21.70
18704;BMP180;9481;48.796;9.210;2023-02-11T13:19:44;98265.00;;;21.70
18704;BMP180;9481;48.796;9.210;2023-02-11T13:22:31;98253.00;;;21.80
18704;BMP180;9481;48.796;9.210;2023-02-11T13:28:02;98241.00;;;22.20
18704;BMP180;9481;48.796;9.210;2023-02-11T13:30:32;98257.00;;;22.30
18704;BMP180;9481;48.796;9.210;2023-02-11T13:35:29;98252.00;;;22.10
18704;BMP180;9481;48.796;9.210;2023-02-11T13:37:58;98264.00;;;22.00
18704;BMP180;9481;48.796;9.210;2023-02-11T13:40:35;98259.00;;;21.80
18704;BMP180;9481;48.796;9.210;2023-02-11T13:43:05;98252.00;;;21.70
18704;BMP180;9481;48.796;9.210;2023-02-11T13:45:45;98249.00;;;21.50
18704;BMP180;9481;48.796;9.210;2023-02-11T13:48:26;98253.00;;;21.40
18704;BMP180;9481;48.796;9.210;2023-02-11T13:51:02;98262.00;;;21.30
18704;BMP180;9481;48.796;9.210;2023-02-11T13:53:53;98263.00;;;21.20
18704;BMP180;9481;48.796;9.210;2023-02-11T13:56:30;98265.00;;;21.20
18704;BMP180;9481;48.796;9.210;2023-02-11T13:59:00;98263.00;;;21.50
18704;BMP180;9481;48.796;9.210;2023-02-11T14:04:33;98247.00;;;23.90
18704;BMP180;9481;48.796;9.210;2023-02-11T14:07:30;98243.00;;;25.20
18704;BMP180;9481;48.796;9.210;2023-02-11T14:13:30;98256.00;;;27.30
18704;BMP180;9481;48.796;9.210;2023-02-11T14:16:18;98246.00;;;28.00
18704;BMP180;9481;48.796;9.210;2023-02-11T14:27:05;98255.00;;;28.90
18704;BMP180;9481;48.796;9.210;2023-02-11T14:35:35;98260.00;;;26.20
18704;BMP180;9481;48.796;9.210;2023-02-11T14:41:23;98249.00;;;24.30
18704;BMP180;9481;48.796;9.210;2023-02-11T14:43:56;98251.00;;;23.50
18704;BMP180;9481;48.796;9.210;2023-02-11T14:46:24;98261.00;;;22.90
18704;BMP180;9481;48.796;9.210;2023-02-11T14:48:57;98261.00;;;22.20
18704;BMP180;9481;48.796;9.210;2023-02-11T14:51:31;98263.00;;;21.60
18704;BMP180;9481;48.796;9.210;2023-02-11T14:54:13;98259.00;;;21.10
18704;BMP180;9481;48.796;9.210;2023-02-11T14:56:40;98254.00;;;20.70
18704;BMP180;9481;48.796;9.210;2023-02-11T14:59:21;98263.00;;;20.20
18704;BMP180;9481;48.796;9.210;2023-02-11T15:01:52;98258.00;;;19.90
18704;BMP180;9481;48.796;9.210;2023-02-11T15:04:34;98263.00;;;19.60
18704;BMP180;9481;48.796;9.210;2023-02-11T15:07:06;98271.00;;;19.30
18704;BMP180;9481;48.796;9.210;2023-02-11T15:09:51;98268.00;;;18.90
18704;BMP180;9481;48.796;9.210;2023-02-11T15:12:26;98273.00;;;18.70
18704;BMP180;9481;48.796;9.210;2023-02-11T15:14:58;98271.00;;;18.50
18704;BMP180;9481;48.796;9.210;2023-02-11T15:17:30;98269.00;;;18.40
18704;BMP180;9481;48.796;9.210;2023-02-11T15:20:00;98269.00;;;18.20
18704;BMP180;9481;48.796;9.210;2023-02-11T15:22:31;98268.00;;;18.10
18704;BMP180;9481;48.796;9.210;2023-02-11T15:27:40;98272.00;;;17.80
18704;BMP180;9481;48.796;9.210;2023-02-11T15:30:23;98266.00;;;17.70
18704;BMP180;9481;48.796;9.210;2023-02-11T15:32:52;98264.00;;;17.60
18704;BMP180;9481;48.796;9.210;2023-02-11T15:35:32;98270.00;;;17.50
18704;BMP180;9481;48.796;9.210;2023-02-11T15:37:59;98270.00;;;17.40
18704;BMP180;9481;48.796;9.210;2023-02-11T15:40:32;98271.00;;;17.30
18704;BMP180;9481;48.796;9.210;2023-02-11T15:43:05;98271.00;;;17.20
18704;BMP180;9481;48.796;9.210;2023-02-11T15:48:18;98282.00;;;17.00
18704;BMP180;9481;48.796;9.210;2023-02-11T15:51:20;98280.00;;;16.80
18704;BMP180;9481;48.796;9.210;2023-02-11T15:53:56;98288.00;;;16.80
18704;BMP180;9481;48.796;9.210;2023-02-11T15:56:28;98281.00;;;16.70
18704;BMP180;9481;48.796;9.210;2023-02-11T15:58:58;98286.00;;;16.60
18704;BMP180;9481;48.796;9.210;2023-02-11T16:01:35;98282.00;;;16.50
18704;BMP180;9481;48.796;9.210;2023-02-11T16:04:03;98285.00;;;16.40
18704;BMP180;9481;48.796;9.210;2023-02-11T16:06:41;98282.00;;;16.30
18704;BMP180;9481;48.796;9.210;2023-02-11T16:14:42;98297.00;;;16.00
18704;BMP180;9481;48.796;9.210;2023-02-11T16:17:22;98305.00;;;16.00
18704;BMP180;9481;48.796;9.210;2023-02-11T16:19:51;98302.00;;;15.90
18704;BMP180;9481;48.796;9.210;2023-02-11T16:22:27;98309.00;;;15.90
18704;BMP180;9481;48.796;9.210;2023-02-11T16:24:58;98313.00;;;15.90
18704;BMP180;9481;48.796;9.210;2023-02-11T16:27:39;98310.00;;;15.80
18704;BMP180;9481;48.796;9.210;2023-02-11T16:32:53;98312.00;;;15.80
18704;BMP180;9481;48.796;9.210;2023-02-11T16:35:19;98309.00;;;15.80
18704;BMP180;9481;48.796;9.210;2023-02-11T16:37:45;98314.00;;;15.70
18704;BMP180;9481;48.796;9.210;2023-02-11T16:40:11;98322.00;;;15.70
18704;BMP180;9481;48.796;9.210;2023-02-11T16:42:37;98321.00;;;15.70
18704;BMP180;9481;48.796;9.210;2023-02-11T16:45:03;98333.00;;;15.70
18704;BMP180;9481;48.796;9.210;2023-02-11T16:47:29;98333.00;;;15.60